sensor_id;sensor_type;location;lat;lon;timestamp;temperature;humidity
54518;DHT22;40423;53.176;6.002;2022-08-04T00:00:16;20.10;99.90
54518;DHT22;40423;53.176;6.002;2022-08-04T00:03:09;20.00;99.90
54518;DHT22;40423;53.176;6.002;2022-08-04T00:10:58;20.00;99.90
54518;DHT22;40423;53.176;6.002;2022-08-04T00:13:26;20.00;99.90
54518;DHT22;40423;53.176;6.002;2022-08-04T00:16:02;20.00;99.90
54518;DHT22;40423;53.176;6.002;2022-08-04T00:18:34;19.90;99.90
54518;DHT22;40423;53.176;6.002;2022-08-04T00:21:05;19.90;99.90
54518;DHT22;40423;53.176;6.002;2022-08-04T00:23:33;19.90;99.90
54518;DHT22;40423;53.176;6.002;2022-08-04T00:26:00;19.90;99.90
54518;DHT22;40423;53.176;6.002;2022-08-04T00:28:27;19.80;99.90
54518;DHT22;40423;53.176;6.002;2022-08-04T00:30:53;19.80;99.90
54518;DHT22;40423;53.176;6.002;2022-08-04T00:33:19;19.70;99.90
54518;DHT22;40423;53.176;6.002;2022-08-04T00:35:47;19.80;99.90
54518;DHT22;40423;53.176;6.002;2022-08-04T00:38:15;19.70;99.90
54518;DHT22;40423;53.176;6.002;2022-08-04T00:41:33;19.70;99.90
54518;DHT22;40423;53.176;6.002;2022-08-04T00:55:18;19.60;99.90
54518;DHT22;40423;53.176;6.002;2022-08-04T01:01:09;19.70;99.90
54518;DHT22;40423;53.176;6.002;2022-08-04T01:06:42;19.70;99.90
54518;DHT22;40423;53.176;6.002;2022-08-04T01:09:25;19.70;99.90
54518;DHT22;40423;53.176;6.002;2022-08-04T01:17:32;19.80;99.90
54518;DHT22;40423;53.176;6.002;2022-08-04T01:20:09;19.80;99.90
54518;DHT22;40423;53.176;6.002;2022-08-04T01:23:23;19.80;99.90
54518;DHT22;40423;53.176;6.002;2022-08-04T01:30:56;19.80;99.90
54518;DHT22;40423;53.176;6.002;2022-08-04T01:33:25;19.80;99.90
54518;DHT22;40423;53.176;6.002;2022-08-04T01:36:05;19.80;99.90
54518;DHT22;40423;53.176;6.002;2022-08-04T01:38:35;19.80;99.90
54518;DHT22;40423;53.176;6.002;2022-08-04T01:41:08;19.70;99.90
54518;DHT22;40423;53.176;6.002;2022-08-04T01:43:38;19.70;99.90
54518;DHT22;40423;53.176;6.002;2022-08-04T01:46:04;19.70;99.90
54518;DHT22;40423;53.176;6.002;2022-08-04T01:48:31;19.70;99.90
54518;DHT22;40423;53.176;6.002;2022-08-04T01:50:59;19.70;99.90
54518;DHT22;40423;53.176;6.002;2022-08-04T01:53:32;19.70;99.90
54518;DHT22;40423;53.176;6.002;2022-08-04T01:56:00;19.70;99.90
54518;DHT22;40423;53.176;6.002;2022-08-04T01:58:28;19.70;99.90
54518;DHT22;40423;53.176;6.002;2022-08-04T02:01:03;19.60;99.90
54518;DHT22;40423;53.176;6.002;2022-08-04T02:03:30;19.70;99.90
54518;DHT22;40423;53.176;6.002;2022-08-04T02:11:16;19.70;99.90
54518;DHT22;40423;53.176;6.002;2022-08-04T02:14:18;19.70;99.90
54518;DHT22;40423;53.176;6.002;2022-08-04T02:16:59;19.80;99.90
54518;DHT22;40423;53.176;6.002;2022-08-04T02:19:32;19.80;99.90
54518;DHT22;40423;53.176;6.002;2022-08-04T02:22:06;19.80;99.90
54518;DHT22;40423;53.176;6.002;2022-08-04T02:24:32;19.80;99.90
54518;DHT22;40423;53.176;6.002;2022-08-04T02:27:02;19.80;99.90
54518;DHT22;40423;53.176;6.002;2022-08-04T02:29:30;19.80;99.90
54518;DHT22;40423;53.176;6.002;2022-08-04T02:32:02;19.70;99.90
54518;DHT22;40423;53.176;6.002;2022-08-04T02:34:37;19.70;99.90
54518;DHT22;40423;53.176;6.002;2022-08-04T02:37:03;19.70;99.90
54518;DHT22;40423;53.176;6.002;2022-08-04T02:39:34;19.60;99.90
54518;DHT22;40423;53.176;6.002;2022-08-04T02:42:03;19.50;99.90
54518;DHT22;40423;53.176;6.002;2022-08-04T02:44:30;19.50;99.90
54518;DHT22;40423;53.176;6.002;2022-08-04T02:46:57;19.50;99.90
54518;DHT22;40423;53.176;6.002;2022-08-04T02:49:25;19.50;99.90
54518;DHT22;40423;53.176;6.002;2022-08-04T02:51:56;19.50;99.90
54518;DHT22;40423;53.176;6.002;2022-08-04T02:54:32;19.50;99.90
54518;DHT22;40423;53.176;6.002;2022-08-04T02:57:00;19.50;99.90
54518;DHT22;40423;53.176;6.002;2022-08-04T02:59:27;19.50;99.90
54518;DHT22;40423;53.176;6.002;2022-08-04T03:01:55;19.50;99.90
54518;DHT22;40423;53.176;6.002;2022-08-04T03:04:34;19.50;99.90
54518;DHT22;40423;53.176;6.002;2022-08-04T03:12:56;19.40;99.90
54518;DHT22;40423;53.176;6.002;2022-08-04T03:18:49;19.40;99.90
54518;DHT22;40423;53.176;6.002;2022-08-04T03:30:10;19.30;99.90
54518;DHT22;40423;53.176;6.002;2022-08-04T03:42:07;19.40;99.90
54518;DHT22;40423;53.176;6.002;2022-08-04T03:48:07;19.30;99.90
54518;DHT22;40423;53.176;6.002;2022-08-04T03:51:01;19.30;99.90
54518;DHT22;40423;53.176;6.002;2022-08-04T04:02:58;19.20;99.90
54518;DHT22;40423;53.176;6.002;2022-08-04T04:08:31;19.20;99.90
54518;DHT22;40423;53.176;6.002;2022-08-04T04:21:57;19.10;99.90
54518;DHT22;40423;53.176;6.002;2022-08-04T04:30:14;19.20;99.90
54518;DHT22;40423;53.176;6.002;2022-08-04T04:33:02;19.20;99.90
54518;DHT22;40423;53.176;6.002;2022-08-04T04:38:58;19.20;99.90
54518;DHT22;40423;53.176;6.002;2022-08-04T04:44:45;19.20;99.90
54518;DHT22;40423;53.176;6.002;2022-08-04T04:48:08;19.20;99.90
54518;DHT22;40423;53.176;6.002;2022-08-04T04:50:57;19.20;99.90
54518;DHT22;40423;53.176;6.002;2022-08-04T04:56:47;19.20;99.90
54518;DHT22;40423;53.176;6.002;2022-08-04T04:59:21;19.30;99.90
54518;DHT22;40423;53.176;6.002;2022-08-04T05:02:20;19.30;99.90
54518;DHT22;40423;53.176;6.002;2022-08-04T05:08:04;19.30;99.90
54518;DHT22;40423;53.176;6.002;2022-08-04T05:13:47;19.20;99.90
54518;DHT22;40423;53.176;6.002;2022-08-04T05:16:36;19.30;99.90
54518;DHT22;40423;53.176;6.002;2022-08-04T05:22:11;19.50;99.90
54518;DHT22;40423;53.176;6.002;2022-08-04T05:24:40;19.60;99.90
54518;DHT22;40423;53.176;6.002;2022-08-04T05:27:15;19.70;99.90
54518;DHT22;40423;53.176;6.002;2022-08-04T05:29:51;19.70;99.90
54518;DHT22;40423;53.176;6.002;2022-08-04T05:32:22;19.80;99.90
54518;DHT22;40423;53.176;6.002;2022-08-04T05:34:56;19.80;99.90
54518;DHT22;40423;53.176;6.002;2022-08-04T05:37:24;19.90;99.90
54518;DHT22;40423;53.176;6.002;2022-08-04T05:40:02;20.00;99.90
54518;DHT22;40423;53.176;6.002;2022-08-04T05:42:30;20.10;99.90
54518;DHT22;40423;53.176;6.002;2022-08-04T05:44:58;20.00;99.90
54518;DHT22;40423;53.176;6.002;2022-08-04T05:47:24;20.10;99.90
54518;DHT22;40423;53.176;6.002;2022-08-04T05:49:53;20.20;99.90
54518;DHT22;40423;53.176;6.002;2022-08-04T05:52:20;20.20;99.90
54518;DHT22;40423;53.176;6.002;2022-08-04T05:54:47;20.40;99.90
54518;DHT22;40423;53.176;6.002;2022-08-04T05:57:15;20.40;99.90
54518;DHT22;40423;53.176;6.002;2022-08-04T05:59:41;20.50;99.90
54518;DHT22;40423;53.176;6.002;2022-08-04T06:02:12;20.60;99.90
54518;DHT22;40423;53.176;6.002;2022-08-04T06:04:42;20.70;99.90
54518;DHT22;40423;53.176;6.002;2022-08-04T06:07:08;20.80;99.90
54518;DHT22;40423;53.176;6.002;2022-08-04T06:09:35;20.90;99.90
54518;DHT22;40423;53.176;6.002;2022-08-04T06:12:06;20.90;99.90
54518;DHT22;40423;53.176;6.002;2022-08-04T06:14:39;21.00;99.90
54518;DHT22;40423;53.176;6.002;2022-08-04T06:17:06;21.00;99.90
54518;DHT22;40423;53.176;6.002;2022-08-04T06:19:34;21.10;99.90
54518;DHT22;40423;53.176;6.002;2022-08-04T06:22:03;21.10;99.90
54518;DHT22;40423;53.176;6.002;2022-08-04T06:24:30;21.20;99.90
54518;DHT22;40423;53.176;6.002;2022-08-04T06:26:57;21.30;99.90
54518;DHT22;40423;53.176;6.002;2022-08-04T06:29:24;21.40;99.90
54518;DHT22;40423;53.176;6.002;2022-08-04T06:32:02;21.40;99.90
54518;DHT22;40423;53.176;6.002;2022-08-04T06:34:38;21.60;99.90
54518;DHT22;40423;53.176;6.002;2022-08-04T06:37:06;21.70;99.90
54518;DHT22;40423;53.176;6.002;2022-08-04T06:39:32;21.80;99.90
54518;DHT22;40423;53.176;6.002;2022-08-04T06:41:59;21.80;99.90
54518;DHT22;40423;53.176;6.002;2022-08-04T06:44:27;21.90;99.90
54518;DHT22;40423;53.176;6.002;2022-08-04T06:46:54;21.90;99.90
54518;DHT22;40423;53.176;6.002;2022-08-04T06:49:22;22.00;99.90
54518;DHT22;40423;53.176;6.002;2022-08-04T06:51:49;22.00;99.90
54518;DHT22;40423;53.176;6.002;2022-08-04T06:54:16;22.00;99.90
54518;DHT22;40423;53.176;6.002;2022-08-04T06:56:43;22.10;99.90
54518;DHT22;40423;53.176;6.002;2022-08-04T06:59:11;22.10;99.90
54518;DHT22;40423;53.176;6.002;2022-08-04T07:01:39;22.10;99.90
54518;DHT22;40423;53.176;6.002;2022-08-04T07:04:06;22.20;99.90
54518;DHT22;40423;53.176;6.002;2022-08-04T07:06:32;22.20;99.90
54518;DHT22;40423;53.176;6.002;2022-08-04T07:08:58;22.30;99.90
54518;DHT22;40423;53.176;6.002;2022-08-04T07:11:25;22.30;99.90
54518;DHT22;40423;53.176;6.002;2022-08-04T07:13:52;22.40;99.90
54518;DHT22;40423;53.176;6.002;2022-08-04T07:16:20;22.50;99.90
54518;DHT22;40423;53.176;6.002;2022-08-04T07:18:47;22.60;99.90
54518;DHT22;40423;53.176;6.002;2022-08-04T07:21:22;22.60;99.90
54518;DHT22;40423;53.176;6.002;2022-08-04T07:23:51;22.60;99.90
54518;DHT22;40423;53.176;6.002;2022-08-04T07:26:17;22.50;99.90
54518;DHT22;40423;53.176;6.002;2022-08-04T07:28:44;22.50;99.90
54518;DHT22;40423;53.176;6.002;2022-08-04T07:31:14;22.60;99.90
54518;DHT22;40423;53.176;6.002;2022-08-04T07:33:47;22.70;99.90
54518;DHT22;40423;53.176;6.002;2022-08-04T07:36:13;22.60;99.90
54518;DHT22;40423;53.176;6.002;2022-08-04T07:38:40;22.60;99.90
54518;DHT22;40423;53.176;6.002;2022-08-04T07:41:07;22.70;99.90
54518;DHT22;40423;53.176;6.002;2022-08-04T07:43:35;22.70;99.90
54518;DHT22;40423;53.176;6.002;2022-08-04T07:46:04;22.70;99.90
54518;DHT22;40423;53.176;6.002;2022-08-04T07:48:33;22.70;99.90
54518;DHT22;40423;53.176;6.002;2022-08-04T07:51:01;22.70;99.90
54518;DHT22;40423;53.176;6.002;2022-08-04T07:53:27;22.70;99.90
54518;DHT22;40423;53.176;6.002;2022-08-04T07:55:54;22.80;99.90
54518;DHT22;40423;53.176;6.002;2022-08-04T07:58:20;22.80;99.90
54518;DHT22;40423;53.176;6.002;2022-08-04T08:00:46;22.80;99.90
54518;DHT22;40423;53.176;6.002;2022-08-04T08:03:13;22.90;99.90
54518;DHT22;40423;53.176;6.002;2022-08-04T08:05:40;23.00;99.90
54518;DHT22;40423;53.176;6.002;2022-08-04T08:08:05;23.00;99.90
54518;DHT22;40423;53.176;6.002;2022-08-04T08:10:31;23.10;99.90
54518;DHT22;40423;53.176;6.002;2022-08-04T08:12:57;23.10;99.90
54518;DHT22;40423;53.176;6.002;2022-08-04T08:15:23;23.20;99.90
54518;DHT22;40423;53.176;6.002;2022-08-04T08:17:50;23.30;99.90
54518;DHT22;40423;53.176;6.002;2022-08-04T08:20:15;23.50;99.90
54518;DHT22;40423;53.176;6.002;2022-08-04T08:22:41;23.60;99.90
54518;DHT22;40423;53.176;6.002;2022-08-04T08:25:07;23.70;99.90
54518;DHT22;40423;53.176;6.002;2022-08-04T08:27:35;23.70;99.90
54518;DHT22;40423;53.176;6.002;2022-08-04T08:30:02;23.90;99.90
54518;DHT22;40423;53.176;6.002;2022-08-04T08:32:28;24.00;99.90
54518;DHT22;40423;53.176;6.002;2022-08-04T08:34:53;24.20;99.90
54518;DHT22;40423;53.176;6.002;2022-08-04T08:37:29;24.20;99.90
54518;DHT22;40423;53.176;6.002;2022-08-04T09:05:23;25.30;99.90
54518;DHT22;40423;53.176;6.002;2022-08-04T09:10:53;25.50;99.90
54518;DHT22;40423;53.176;6.002;2022-08-04T09:13:35;25.70;99.90
54518;DHT22;40423;53.176;6.002;2022-08-04T09:16:34;25.80;99.90
54518;DHT22;40423;53.176;6.002;2022-08-04T09:19:22;25.90;99.90
54518;DHT22;40423;53.176;6.002;2022-08-04T09:24:53;26.20;99.90
54518;DHT22;40423;53.176;6.002;2022-08-04T09:27:29;26.30;99.90
54518;DHT22;40423;53.176;6.002;2022-08-04T09:30:03;26.30;99.90
54518;DHT22;40423;53.176;6.002;2022-08-04T09:32:56;26.40;99.90
54518;DHT22;40423;53.176;6.002;2022-08-04T09:35:45;26.10;99.90
54518;DHT22;40423;53.176;6.002;2022-08-04T09:47:29;26.50;99.90
54518;DHT22;40423;53.176;6.002;2022-08-04T10:01:28;26.70;99.90
54518;DHT22;40423;53.176;6.002;2022-08-04T10:04:00;26.80;99.90
54518;DHT22;40423;53.176;6.002;2022-08-04T10:15:02;26.60;99.40
54518;DHT22;40423;53.176;6.002;2022-08-04T10:26:54;26.20;99.00
54518;DHT22;40423;53.176;6.002;2022-08-04T10:29:18;26.40;98.70
54518;DHT22;40423;53.176;6.002;2022-08-04T10:31:54;26.30;97.00
54518;DHT22;40423;53.176;6.002;2022-08-04T10:34:26;26.20;97.70
54518;DHT22;40423;53.176;6.002;2022-08-04T10:37:09;26.30;97.90
54518;DHT22;40423;53.176;6.002;2022-08-04T10:45:49;26.70;97.20
54518;DHT22;40423;53.176;6.002;2022-08-04T11:00:03;26.20;97.70
54518;DHT22;40423;53.176;6.002;2022-08-04T11:03:18;26.10;97.50
54518;DHT22;40423;53.176;6.002;2022-08-04T11:05:35;26.20;97.10
54518;DHT22;40423;53.176;6.002;2022-08-04T11:08:10;26.10;96.50
54518;DHT22;40423;53.176;6.002;2022-08-04T11:10:47;26.10;96.90
54518;DHT22;40423;53.176;6.002;2022-08-04T11:13:15;25.90;96.40
54518;DHT22;40423;53.176;6.002;2022-08-04T11:15:51;25.90;96.40
54518;DHT22;40423;53.176;6.002;2022-08-04T11:21:07;25.80;97.00
54518;DHT22;40423;53.176;6.002;2022-08-04T11:23:36;25.90;97.40
54518;DHT22;40423;53.176;6.002;2022-08-04T11:26:23;26.00;97.00
54518;DHT22;40423;53.176;6.002;2022-08-04T11:29:00;26.10;97.00
54518;DHT22;40423;53.176;6.002;2022-08-04T11:31:32;26.00;97.30
54518;DHT22;40423;53.176;6.002;2022-08-04T11:39:34;25.80;96.40
54518;DHT22;40423;53.176;6.002;2022-08-04T11:42:12;25.80;97.00
54518;DHT22;40423;53.176;6.002;2022-08-04T11:50:32;25.60;96.50
54518;DHT22;40423;53.176;6.002;2022-08-04T11:53:00;25.40;97.00
54518;DHT22;40423;53.176;6.002;2022-08-04T11:55:27;25.30;96.50
54518;DHT22;40423;53.176;6.002;2022-08-04T11:57:54;25.20;97.10
54518;DHT22;40423;53.176;6.002;2022-08-04T12:00:22;25.40;96.90
54518;DHT22;40423;53.176;6.002;2022-08-04T12:08:28;25.60;97.50
54518;DHT22;40423;53.176;6.002;2022-08-04T12:13:53;25.90;97.30
54518;DHT22;40423;53.176;6.002;2022-08-04T12:16:51;26.10;96.90
54518;DHT22;40423;53.176;6.002;2022-08-04T12:22:16;26.20;96.00
54518;DHT22;40423;53.176;6.002;2022-08-04T12:24:50;26.30;96.10
54518;DHT22;40423;53.176;6.002;2022-08-04T12:27:23;26.30;95.30
54518;DHT22;40423;53.176;6.002;2022-08-04T12:29:50;26.50;96.40
54518;DHT22;40423;53.176;6.002;2022-08-04T12:32:37;26.40;95.10
54518;DHT22;40423;53.176;6.002;2022-08-04T12:35:32;26.40;94.70
54518;DHT22;40423;53.176;6.002;2022-08-04T12:38:05;26.50;94.80
54518;DHT22;40423;53.176;6.002;2022-08-04T12:40:43;26.70;93.70
54518;DHT22;40423;53.176;6.002;2022-08-04T12:43:59;26.70;94.30
54518;DHT22;40423;53.176;6.002;2022-08-04T12:46:02;26.80;94.00
54518;DHT22;40423;53.176;6.002;2022-08-04T12:48:29;26.70;93.30
54518;DHT22;40423;53.176;6.002;2022-08-04T12:50:57;26.90;93.90
54518;DHT22;40423;53.176;6.002;2022-08-04T12:53:31;26.70;94.10
54518;DHT22;40423;53.176;6.002;2022-08-04T12:55:57;26.80;94.20
54518;DHT22;40423;53.176;6.002;2022-08-04T12:58:26;27.00;93.60
54518;DHT22;40423;53.176;6.002;2022-08-04T13:00:55;27.10;93.80
54518;DHT22;40423;53.176;6.002;2022-08-04T13:03:27;27.10;93.30
54518;DHT22;40423;53.176;6.002;2022-08-04T13:05:54;27.40;92.70
54518;DHT22;40423;53.176;6.002;2022-08-04T13:08:21;27.60;92.70
54518;DHT22;40423;53.176;6.002;2022-08-04T13:10:51;27.30;91.90
54518;DHT22;40423;53.176;6.002;2022-08-04T13:13:24;27.00;92.10
54518;DHT22;40423;53.176;6.002;2022-08-04T13:16:09;27.10;92.40
54518;DHT22;40423;53.176;6.002;2022-08-04T13:18:39;27.30;92.80
54518;DHT22;40423;53.176;6.002;2022-08-04T13:21:17;27.50;92.10
54518;DHT22;40423;53.176;6.002;2022-08-04T13:23:45;27.40;92.00
54518;DHT22;40423;53.176;6.002;2022-08-04T13:26:13;27.20;92.40
54518;DHT22;40423;53.176;6.002;2022-08-04T13:28:42;26.80;92.30
54518;DHT22;40423;53.176;6.002;2022-08-04T13:31:18;26.70;91.90
54518;DHT22;40423;53.176;6.002;2022-08-04T13:33:46;26.70;92.40
54518;DHT22;40423;53.176;6.002;2022-08-04T13:36:15;26.60;92.50
54518;DHT22;40423;53.176;6.002;2022-08-04T13:39:05;26.80;92.90
54518;DHT22;40423;53.176;6.002;2022-08-04T13:41:38;26.80;92.50
54518;DHT22;40423;53.176;6.002;2022-08-04T13:44:06;26.50;93.20
54518;DHT22;40423;53.176;6.002;2022-08-04T13:46:40;26.40;93.50
54518;DHT22;40423;53.176;6.002;2022-08-04T13:49:14;26.30;93.70
54518;DHT22;40423;53.176;6.002;2022-08-04T13:51:56;26.30;94.20
54518;DHT22;40423;53.176;6.002;2022-08-04T13:54:22;26.50;94.80
54518;DHT22;40423;53.176;6.002;2022-08-04T13:56:52;26.60;94.70
54518;DHT22;40423;53.176;6.002;2022-08-04T13:59:23;26.50;95.20
54518;DHT22;40423;53.176;6.002;2022-08-04T14:02:05;26.00;95.90
54518;DHT22;40423;53.176;6.002;2022-08-04T14:04:37;25.80;97.30
54518;DHT22;40423;53.176;6.002;2022-08-04T14:07:15;25.80;97.90
54518;DHT22;40423;53.176;6.002;2022-08-04T14:09:42;25.70;97.80
54518;DHT22;40423;53.176;6.002;2022-08-04T14:12:13;25.80;98.20
54518;DHT22;40423;53.176;6.002;2022-08-04T14:14:51;25.80;98.30
54518;DHT22;40423;53.176;6.002;2022-08-04T14:17:22;25.70;98.50
54518;DHT22;40423;53.176;6.002;2022-08-04T14:19:52;25.80;98.70
54518;DHT22;40423;53.176;6.002;2022-08-04T14:25:02;26.30;99.50
54518;DHT22;40423;53.176;6.002;2022-08-04T14:27:39;26.60;99.30
54518;DHT22;40423;53.176;6.002;2022-08-04T14:30:06;26.70;98.70
54518;DHT22;40423;53.176;6.002;2022-08-04T14:32:32;26.80;98.40
54518;DHT22;40423;53.176;6.002;2022-08-04T14:34:58;26.90;98.10
54518;DHT22;40423;53.176;6.002;2022-08-04T14:37:35;26.70;97.40
54518;DHT22;40423;53.176;6.002;2022-08-04T14:40:01;26.70;98.30
54518;DHT22;40423;53.176;6.002;2022-08-04T14:42:40;26.80;98.30
54518;DHT22;40423;53.176;6.002;2022-08-04T14:45:07;26.70;97.80
54518;DHT22;40423;53.176;6.002;2022-08-04T14:47:41;26.60;98.50
54518;DHT22;40423;53.176;6.002;2022-08-04T14:50:09;26.60;98.30
54518;DHT22;40423;53.176;6.002;2022-08-04T14:52:35;26.30;98.30
54518;DHT22;40423;53.176;6.002;2022-08-04T14:55:22;26.10;98.20
54518;DHT22;40423;53.176;6.002;2022-08-04T14:57:49;26.00;98.50
54518;DHT22;40423;53.176;6.002;2022-08-04T15:00:33;25.90;98.00
54518;DHT22;40423;53.176;6.002;2022-08-04T15:03:02;25.90;98.20
54518;DHT22;40423;53.176;6.002;2022-08-04T15:05:29;25.90;97.70
54518;DHT22;40423;53.176;6.002;2022-08-04T15:07:56;25.80;97.60
54518;DHT22;40423;53.176;6.002;2022-08-04T15:10:22;25.60;97.00
54518;DHT22;40423;53.176;6.002;2022-08-04T15:12:49;25.50;97.00
54518;DHT22;40423;53.176;6.002;2022-08-04T15:15:15;25.40;96.70
54518;DHT22;40423;53.176;6.002;2022-08-04T15:17:41;25.30;96.90
54518;DHT22;40423;53.176;6.002;2022-08-04T15:20:09;25.30;97.10
54518;DHT22;40423;53.176;6.002;2022-08-04T15:22:35;25.20;96.80
54518;DHT22;40423;53.176;6.002;2022-08-04T15:25:01;25.20;96.90
54518;DHT22;40423;53.176;6.002;2022-08-04T15:27:30;25.10;96.80
54518;DHT22;40423;53.176;6.002;2022-08-04T15:30:00;24.90;96.30
54518;DHT22;40423;53.176;6.002;2022-08-04T15:32:29;24.80;96.50
54518;DHT22;40423;53.176;6.002;2022-08-04T15:35:02;24.60;96.30
54518;DHT22;40423;53.176;6.002;2022-08-04T15:40:24;24.70;96.60
54518;DHT22;40423;53.176;6.002;2022-08-04T15:43:16;24.70;96.20
54518;DHT22;40423;53.176;6.002;2022-08-04T15:45:57;24.70;96.20
54518;DHT22;40423;53.176;6.002;2022-08-04T15:48:26;24.70;96.50
54518;DHT22;40423;53.176;6.002;2022-08-04T15:53:32;24.80;96.50
54518;DHT22;40423;53.176;6.002;2022-08-04T15:58:53;24.70;96.00
54518;DHT22;40423;53.176;6.002;2022-08-04T16:01:19;24.70;96.30
54518;DHT22;40423;53.176;6.002;2022-08-04T16:03:49;24.50;96.30
54518;DHT22;40423;53.176;6.002;2022-08-04T16:14:09;24.30;96.30
54518;DHT22;40423;53.176;6.002;2022-08-04T16:21:50;24.20;96.90
54518;DHT22;40423;53.176;6.002;2022-08-04T16:24:21;24.20;97.10
54518;DHT22;40423;53.176;6.002;2022-08-04T16:27:03;24.10;97.10
54518;DHT22;40423;53.176;6.002;2022-08-04T16:29:33;24.10;97.10
54518;DHT22;40423;53.176;6.002;2022-08-04T16:34:40;24.10;97.10
54518;DHT22;40423;53.176;6.002;2022-08-04T16:37:08;24.10;97.30
54518;DHT22;40423;53.176;6.002;2022-08-04T16:39:35;24.00;97.10
54518;DHT22;40423;53.176;6.002;2022-08-04T16:50:14;23.80;97.70
54518;DHT22;40423;53.176;6.002;2022-08-04T16:52:45;23.70;97.70
54518;DHT22;40423;53.176;6.002;2022-08-04T16:55:14;23.70;98.00
54518;DHT22;40423;53.176;6.002;2022-08-04T16:57:40;23.70;98.20
54518;DHT22;40423;53.176;6.002;2022-08-04T17:00:06;23.70;98.30
54518;DHT22;40423;53.176;6.002;2022-08-04T17:02:33;23.60;98.30
54518;DHT22;40423;53.176;6.002;2022-08-04T17:05:00;23.60;98.50
54518;DHT22;40423;53.176;6.002;2022-08-04T17:07:26;23.50;98.50
54518;DHT22;40423;53.176;6.002;2022-08-04T17:09:52;23.40;98.70
54518;DHT22;40423;53.176;6.002;2022-08-04T17:12:18;23.40;99.00
54518;DHT22;40423;53.176;6.002;2022-08-04T17:14:43;23.30;99.10
54518;DHT22;40423;53.176;6.002;2022-08-04T17:17:09;23.20;99.10
54518;DHT22;40423;53.176;6.002;2022-08-04T17:19:36;23.10;99.20
54518;DHT22;40423;53.176;6.002;2022-08-04T17:22:03;23.10;99.30
54518;DHT22;40423;53.176;6.002;2022-08-04T17:24:36;23.10;99.50
54518;DHT22;40423;53.176;6.002;2022-08-04T17:27:04;23.00;99.20
54518;DHT22;40423;53.176;6.002;2022-08-04T17:29:30;22.90;99.40
54518;DHT22;40423;53.176;6.002;2022-08-04T17:31:56;23.00;99.60
54518;DHT22;40423;53.176;6.002;2022-08-04T17:34:22;23.00;99.70
54518;DHT22;40423;53.176;6.002;2022-08-04T17:36:50;22.90;99.70
54518;DHT22;40423;53.176;6.002;2022-08-04T17:39:20;22.90;99.70
54518;DHT22;40423;53.176;6.002;2022-08-04T17:41:54;22.80;99.70
54518;DHT22;40423;53.176;6.002;2022-08-04T17:44:20;22.80;99.70
54518;DHT22;40423;53.176;6.002;2022-08-04T17:46:46;22.70;99.50
54518;DHT22;40423;53.176;6.002;2022-08-04T17:51:57;22.50;99.60
54518;DHT22;40423;53.176;6.002;2022-08-04T17:56:53;22.40;99.80
54518;DHT22;40423;53.176;6.002;2022-08-04T18:02:03;22.40;99.60
54518;DHT22;40423;53.176;6.002;2022-08-04T18:12:04;22.10;99.60
54518;DHT22;40423;53.176;6.002;2022-08-04T18:14:39;22.00;99.70
54518;DHT22;40423;53.176;6.002;2022-08-04T18:17:06;22.00;99.90
54518;DHT22;40423;53.176;6.002;2022-08-04T18:19:32;21.90;99.90
54518;DHT22;40423;53.176;6.002;2022-08-04T18:21:57;21.90;99.90
54518;DHT22;40423;53.176;6.002;2022-08-04T18:24:23;21.90;99.90
54518;DHT22;40423;53.176;6.002;2022-08-04T18:26:51;21.90;99.90
54518;DHT22;40423;53.176;6.002;2022-08-04T18:29:17;21.90;99.90
54518;DHT22;40423;53.176;6.002;2022-08-04T18:31:42;21.90;99.90
54518;DHT22;40423;53.176;6.002;2022-08-04T18:34:08;21.80;99.90
54518;DHT22;40423;53.176;6.002;2022-08-04T18:36:35;21.80;99.90
54518;DHT22;40423;53.176;6.002;2022-08-04T18:39:03;21.70;99.90
54518;DHT22;40423;53.176;6.002;2022-08-04T18:41:29;21.60;99.90
54518;DHT22;40423;53.176;6.002;2022-08-04T18:43:55;21.70;99.90
54518;DHT22;40423;53.176;6.002;2022-08-04T18:46:22;21.70;99.90
54518;DHT22;40423;53.176;6.002;2022-08-04T18:48:48;21.70;99.90
54518;DHT22;40423;53.176;6.002;2022-08-04T18:51:13;21.60;99.90
54518;DHT22;40423;53.176;6.002;2022-08-04T18:53:39;21.60;99.90
54518;DHT22;40423;53.176;6.002;2022-08-04T18:56:05;21.50;99.90
54518;DHT22;40423;53.176;6.002;2022-08-04T18:58:31;21.50;99.90
54518;DHT22;40423;53.176;6.002;2022-08-04T19:00:57;21.50;99.90
54518;DHT22;40423;53.176;6.002;2022-08-04T19:03:23;21.40;99.90
54518;DHT22;40423;53.176;6.002;2022-08-04T19:05:49;21.40;99.90
54518;DHT22;40423;53.176;6.002;2022-08-04T19:08:15;21.30;99.90
54518;DHT22;40423;53.176;6.002;2022-08-04T19:10:41;21.20;99.90
54518;DHT22;40423;53.176;6.002;2022-08-04T19:13:07;21.20;99.90
54518;DHT22;40423;53.176;6.002;2022-08-04T19:15:32;20.90;99.90
54518;DHT22;40423;53.176;6.002;2022-08-04T19:17:58;21.20;99.90
54518;DHT22;40423;53.176;6.002;2022-08-04T19:20:24;21.10;99.90
54518;DHT22;40423;53.176;6.002;2022-08-04T19:22:50;21.10;99.90
54518;DHT22;40423;53.176;6.002;2022-08-04T19:25:16;21.10;99.90
54518;DHT22;40423;53.176;6.002;2022-08-04T19:27:42;21.00;99.90
54518;DHT22;40423;53.176;6.002;2022-08-04T19:30:08;21.00;99.90
54518;DHT22;40423;53.176;6.002;2022-08-04T19:32:34;21.00;99.90
54518;DHT22;40423;53.176;6.002;2022-08-04T19:34:59;20.90;99.90
54518;DHT22;40423;53.176;6.002;2022-08-04T19:37:25;20.90;99.90
54518;DHT22;40423;53.176;6.002;2022-08-04T19:39:54;20.90;99.90
54518;DHT22;40423;53.176;6.002;2022-08-04T19:42:20;20.80;99.90
54518;DHT22;40423;53.176;6.002;2022-08-04T19:44:45;20.80;99.90
54518;DHT22;40423;53.176;6.002;2022-08-04T19:47:12;20.80;99.90
54518;DHT22;40423;53.176;6.002;2022-08-04T19:49:37;20.80;99.90
54518;DHT22;40423;53.176;6.002;2022-08-04T19:52:03;20.80;99.90
54518;DHT22;40423;53.176;6.002;2022-08-04T19:54:29;20.70;99.90
54518;DHT22;40423;53.176;6.002;2022-08-04T19:56:56;20.70;99.90
54518;DHT22;40423;53.176;6.002;2022-08-04T19:59:22;20.70;99.90
54518;DHT22;40423;53.176;6.002;2022-08-04T20:01:47;20.70;99.90
54518;DHT22;40423;53.176;6.002;2022-08-04T20:04:14;20.70;99.90
54518;DHT22;40423;53.176;6.002;2022-08-04T20:06:40;20.60;99.90
54518;DHT22;40423;53.176;6.002;2022-08-04T20:09:06;20.60;99.90
54518;DHT22;40423;53.176;6.002;2022-08-04T20:11:32;20.50;99.90
54518;DHT22;40423;53.176;6.002;2022-08-04T20:13:58;20.50;99.90
54518;DHT22;40423;53.176;6.002;2022-08-04T20:16:23;20.50;99.90
54518;DHT22;40423;53.176;6.002;2022-08-04T20:18:49;20.50;99.90
54518;DHT22;40423;53.176;6.002;2022-08-04T20:21:15;20.40;99.90
54518;DHT22;40423;53.176;6.002;2022-08-04T20:23:41;20.50;99.90
54518;DHT22;40423;53.176;6.002;2022-08-04T20:26:07;20.40;99.90
54518;DHT22;40423;53.176;6.002;2022-08-04T20:28:34;20.40;99.90
54518;DHT22;40423;53.176;6.002;2022-08-04T20:31:00;20.40;99.90
54518;DHT22;40423;53.176;6.002;2022-08-04T20:33:26;20.30;99.90